createdAt,value
2023-08-07T00:03:42.680Z,3.30
2023-08-07T00:08:46.539Z,3.30
2023-08-07T00:13:50.417Z,3.30
2023-08-07T00:18:58.180Z,3.70
2023-08-07T00:24:07.530Z,3.50
2023-08-07T00:29:11.469Z,3.10
2023-08-07T00:34:15.504Z,3.30
2023-08-07T00:39:20.645Z,3.30
2023-08-07T00:44:27.552Z,3.80
2023-08-07T00:49:31.579Z,2.80
2023-08-07T00:54:35.708Z,3.40
2023-08-07T00:59:40.768Z,3.00
2023-08-07T01:04:44.749Z,3.00
2023-08-07T01:09:48.770Z,3.80
2023-08-07T01:15:15.645Z,3.00
2023-08-07T01:20:19.551Z,3.50
2023-08-07T01:25:23.479Z,3.10
2023-08-07T01:30:44.031Z,3.30
2023-08-07T01:35:49.449Z,3.10
2023-08-07T01:40:54.341Z,3.50
2023-08-07T01:45:59.794Z,3.40
2023-08-07T01:51:03.850Z,3.70
2023-08-07T01:56:07.911Z,3.50
2023-08-07T02:01:11.870Z,3.50
2023-08-07T02:06:15.625Z,3.40
2023-08-07T02:11:19.394Z,3.40
2023-08-07T02:16:23.247Z,3.60
2023-08-07T02:21:26.942Z,3.50
2023-08-07T02:26:30.683Z,4.30
2023-08-07T02:31:36.005Z,4.00
2023-08-07T02:36:39.957Z,3.90
2023-08-07T02:41:43.743Z,3.90
2023-08-07T02:46:47.754Z,3.30
2023-08-07T02:51:51.530Z,3.60
2023-08-07T02:56:55.490Z,3.30
2023-08-07T03:01:59.477Z,3.00
2023-08-07T03:07:03.291Z,3.00
2023-08-07T03:12:07.654Z,3.10
2023-08-07T03:17:12.459Z,2.90
2023-08-07T03:22:16.645Z,2.50
2023-08-07T03:27:20.551Z,3.20
2023-08-07T03:32:24.480Z,3.30
2023-08-07T03:37:29.092Z,3.10
2023-08-07T03:42:32.887Z,2.90
2023-08-07T03:47:37.651Z,3.00
2023-08-07T03:52:42.733Z,3.50
2023-08-07T03:57:47.235Z,3.00
2023-08-07T04:02:51.165Z,3.40
2023-08-07T04:07:55.487Z,3.30
2023-08-07T04:13:01.456Z,3.50
2023-08-07T04:18:05.387Z,3.20
2023-08-07T04:23:10.357Z,3.50
2023-08-07T04:28:14.182Z,3.20
2023-08-07T04:33:18.459Z,3.40
2023-08-07T04:38:23.180Z,2.90
2023-08-07T04:43:27.070Z,3.40
2023-08-07T04:48:30.967Z,3.80
2023-08-07T04:53:34.957Z,4.20
2023-08-07T04:58:38.709Z,3.80
2023-08-07T05:03:42.647Z,3.70
2023-08-07T05:08:46.505Z,3.30
2023-08-07T05:13:50.490Z,3.70
2023-08-07T05:18:54.629Z,3.50
2023-08-07T05:23:58.458Z,2.90
2023-08-07T05:29:02.222Z,2.80
2023-08-07T05:34:06.012Z,3.40
2023-08-07T05:39:10.305Z,3.30
2023-08-07T05:44:14.060Z,3.20
2023-08-07T05:49:17.826Z,3.00
2023-08-07T05:54:21.638Z,3.00
2023-08-07T05:59:25.436Z,2.90
2023-08-07T06:04:29.250Z,2.60
2023-08-07T06:09:33.127Z,2.40
2023-08-07T06:14:38.880Z,2.70
2023-08-07T06:19:42.692Z,2.20
2023-08-07T06:24:47.090Z,2.40
2023-08-07T06:29:50.938Z,2.30
2023-08-07T06:34:54.897Z,2.40
2023-08-07T06:39:59.701Z,2.50
2023-08-07T06:45:04.924Z,2.60
2023-08-07T06:50:09.103Z,2.20
2023-08-07T06:55:12.889Z,2.60
2023-08-07T07:00:17.388Z,2.70
2023-08-07T07:05:21.528Z,2.60
2023-08-07T07:10:25.972Z,2.80
2023-08-07T07:15:30.514Z,2.70
2023-08-07T07:20:34.965Z,2.60
2023-08-07T07:25:39.067Z,2.00
2023-08-07T07:30:43.041Z,2.70
2023-08-07T07:35:47.189Z,2.30
2023-08-07T07:40:57.548Z,2.30
2023-08-07T07:46:01.565Z,2.30
2023-08-07T07:51:11.961Z,2.10
2023-08-07T07:56:17.695Z,2.30
2023-08-07T08:01:24.994Z,2.10
2023-08-07T08:06:32.379Z,2.00
2023-08-07T08:11:36.227Z,2.10
2023-08-07T08:16:41.407Z,2.30
2023-08-07T08:21:46.626Z,2.40
2023-08-07T08:26:50.294Z,2.60
2023-08-07T08:31:56.034Z,2.80
2023-08-07T08:37:01.103Z,2.50
2023-08-07T08:42:05.062Z,2.50
2023-08-07T08:47:11.404Z,2.40
2023-08-07T08:52:26.395Z,2.40
2023-08-07T08:57:30.845Z,2.90
2023-08-07T09:02:34.861Z,2.40
2023-08-07T09:07:39.463Z,2.50
2023-08-07T09:12:50.305Z,2.30
2023-08-07T09:17:55.881Z,2.60
2023-08-07T09:22:59.753Z,2.70
2023-08-07T09:28:07.321Z,2.80
2023-08-07T09:33:11.872Z,2.30
2023-08-07T09:38:16.481Z,2.30
2023-08-07T09:43:24.099Z,2.10
2023-08-07T09:48:29.272Z,2.00
2023-08-07T09:53:33.304Z,2.20
2023-08-07T09:58:37.027Z,2.00
2023-08-07T10:03:40.830Z,1.90
2023-08-07T10:08:46.224Z,1.90
2023-08-07T10:13:50.036Z,1.90
2023-08-07T10:18:53.916Z,2.20
2023-08-07T10:24:00.275Z,1.70
2023-08-07T10:29:06.356Z,1.90
2023-08-07T10:34:10.453Z,2.10
2023-08-07T10:39:14.680Z,1.80
2023-08-07T10:44:32.521Z,1.70
2023-08-07T10:49:38.679Z,1.70
2023-08-07T10:54:47.499Z,1.50
2023-08-07T11:00:17.389Z,1.80
2023-08-07T11:05:21.869Z,1.30
2023-08-07T11:10:26.035Z,1.70
2023-08-07T11:15:29.929Z,1.40
2023-08-07T11:20:34.196Z,1.50
2023-08-07T11:25:38.733Z,1.50
2023-08-07T11:30:43.100Z,1.80
2023-08-07T11:35:47.913Z,1.50
2023-08-07T11:40:54.936Z,1.60
2023-08-07T11:46:01.156Z,1.80
2023-08-07T11:51:06.106Z,2.10
2023-08-07T11:56:11.988Z,1.80
2023-08-07T12:01:21.572Z,1.60
2023-08-07T12:06:27.777Z,1.60
2023-08-07T12:11:32.158Z,1.90
2023-08-07T12:16:37.642Z,1.60
2023-08-07T12:21:41.600Z,1.60
2023-08-07T12:26:45.857Z,1.50
2023-08-07T12:31:49.686Z,1.60
2023-08-07T12:36:53.521Z,1.20
2023-08-07T12:47:04.728Z,1.90
2023-08-07T12:52:08.926Z,1.60
2023-08-07T12:57:12.693Z,1.80
2023-08-07T13:02:16.504Z,1.50
2023-08-07T13:07:20.955Z,1.20
2023-08-07T13:12:26.545Z,1.50
2023-08-07T13:17:30.970Z,1.60
2023-08-07T13:22:36.552Z,1.50
2023-08-07T13:27:41.126Z,1.60
2023-08-07T13:32:45.025Z,1.40
2023-08-07T13:37:48.965Z,1.70
2023-08-07T13:42:54.687Z,1.60
2023-08-07T13:47:58.615Z,1.50
2023-08-07T13:53:13.604Z,1.60
2023-08-07T13:58:19.919Z,1.90
2023-08-07T14:03:24.686Z,1.50
2023-08-07T14:08:30.079Z,1.30
2023-08-07T14:13:34.534Z,1.40
2023-08-07T14:18:39.518Z,1.50
2023-08-07T14:23:46.706Z,1.60
2023-08-07T14:28:50.716Z,1.60
2023-08-07T14:33:55.155Z,1.50
2023-08-07T14:39:00.124Z,1.50
2023-08-07T14:44:04.111Z,1.70
2023-08-07T14:49:07.995Z,1.40
2023-08-07T14:54:13.006Z,1.60
2023-08-07T14:59:16.959Z,1.50
2023-08-07T15:04:21.161Z,2.10
2023-08-07T15:09:25.914Z,1.10
2023-08-07T15:14:30.269Z,1.20
2023-08-07T15:19:34.354Z,1.10
2023-08-07T15:24:38.659Z,1.30
2023-08-07T15:29:46.358Z,1.20
2023-08-07T15:34:50.637Z,1.10
2023-08-07T15:39:54.494Z,1.20
2023-08-07T15:44:59.187Z,1.40
2023-08-07T15:50:05.932Z,1.10
2023-08-07T15:55:10.294Z,1.30
2023-08-07T16:00:15.626Z,1.00
2023-08-07T16:05:23.523Z,1.00
2023-08-07T16:10:28.913Z,1.20
2023-08-07T16:15:32.928Z,1.00
2023-08-07T16:20:39.618Z,1.00
2023-08-07T16:25:43.771Z,1.00
2023-08-07T16:30:48.363Z,1.30
2023-08-07T16:35:52.606Z,1.00
2023-08-07T16:40:56.861Z,0.80
2023-08-07T16:46:01.799Z,0.70
2023-08-07T16:51:15.100Z,0.50
2023-08-07T16:56:30.039Z,0.60
2023-08-07T17:01:48.305Z,0.80
2023-08-07T17:07:04.185Z,0.60
2023-08-07T17:12:10.500Z,0.90
2023-08-07T17:17:14.813Z,1.00
2023-08-07T17:22:20.895Z,0.70
2023-08-07T17:27:30.452Z,0.80
2023-08-07T17:32:38.956Z,0.80
2023-08-07T17:37:43.295Z,0.90
2023-08-07T17:42:56.626Z,0.90
2023-08-07T17:48:05.173Z,0.70
2023-08-07T17:53:09.206Z,0.80
2023-08-07T17:58:13.615Z,0.80
2023-08-07T18:03:33.452Z,0.80
2023-08-07T18:08:38.770Z,0.70
2023-08-07T18:13:44.334Z,0.80
2023-08-07T18:18:59.434Z,0.80
2023-08-07T18:24:04.685Z,1.00
2023-08-07T18:29:09.251Z,0.90
2023-08-07T18:34:18.464Z,1.00
2023-08-07T18:39:27.742Z,0.90
2023-08-07T18:44:32.872Z,0.90
2023-08-07T18:49:38.252Z,1.00
2023-08-07T18:55:05.217Z,1.00
2023-08-07T19:00:28.822Z,1.00
2023-08-07T19:05:33.668Z,0.80
2023-08-07T19:10:51.259Z,0.80
2023-08-07T19:16:13.536Z,1.00
2023-08-07T19:21:18.282Z,0.90
2023-08-07T19:26:23.971Z,0.90
2023-08-07T19:31:29.001Z,0.80
2023-08-07T19:36:41.258Z,1.00
2023-08-07T19:41:45.996Z,0.90
2023-08-07T19:46:52.814Z,0.70
2023-08-07T19:51:57.417Z,1.00
2023-08-07T19:57:02.279Z,1.00
2023-08-07T20:02:09.128Z,1.30
2023-08-07T20:07:13.216Z,0.90
2023-08-07T20:12:18.167Z,1.00
2023-08-07T20:17:22.771Z,1.00
2023-08-07T20:22:27.298Z,1.20
2023-08-07T20:27:31.815Z,1.40
2023-08-07T20:32:36.674Z,1.20
2023-08-07T20:37:41.137Z,0.90
2023-08-07T20:42:45.811Z,0.90
2023-08-07T20:47:49.962Z,1.10
2023-08-07T20:52:55.564Z,1.10
2023-08-07T20:58:01.293Z,1.40
2023-08-07T21:03:05.560Z,1.30
2023-08-07T21:08:09.487Z,1.30
2023-08-07T21:13:13.679Z,1.60
2023-08-07T21:18:17.438Z,1.40
2023-08-07T21:23:21.923Z,1.20
2023-08-07T21:28:25.782Z,1.60
2023-08-07T21:33:29.515Z,2.50
2023-08-07T21:38:33.269Z,1.50
2023-08-07T21:43:36.970Z,1.60
2023-08-07T21:48:41.190Z,1.50
2023-08-07T21:53:45.105Z,1.80
2023-08-07T21:58:49.346Z,2.00
2023-08-07T22:03:54.641Z,2.10
2023-08-07T22:08:59.082Z,1.80
2023-08-07T22:14:04.063Z,1.70
2023-08-07T22:19:10.422Z,1.70
2023-08-07T22:24:16.754Z,2.00
2023-08-07T22:29:21.445Z,1.70
2023-08-07T22:34:26.192Z,1.90
2023-08-07T22:39:30.542Z,1.70
2023-08-07T22:44:35.566Z,2.00
2023-08-07T22:49:39.952Z,2.00
2023-08-07T22:54:44.075Z,2.00
2023-08-07T22:59:49.461Z,2.00
2023-08-07T23:04:54.642Z,2.10
2023-08-07T23:09:58.916Z,1.70
2023-08-07T23:15:02.635Z,2.30
2023-08-07T23:20:09.185Z,1.60
2023-08-07T23:25:14.510Z,2.10
2023-08-07T23:30:19.751Z,1.50
2023-08-07T23:35:24.650Z,1.90
2023-08-07T23:40:28.421Z,1.80
2023-08-07T23:45:33.379Z,2.20
2023-08-07T23:50:37.168Z,2.10
2023-08-07T23:55:41.550Z,1.90
